Algerita, Texas
Current Conditions -  °F | °C
As of 1:55 AM on Thursday 27 Nov 2014 (Local Time) from KAQO Reporting Station
Clear Clear  
Wind Chill: 37°   Ceiling: Unl
Heat Index: 37°   Visibility: 10mi
Dew Point: 34°   Wind: 3mph
Humidity: 87%   Direction: 10°N
Pressure: 30.44"   Gusts: NA
Location:  31.0718°N, 98.8001°W
Report Text: KAQO 270755Z AUTO 01003KT 10SM CLR 03/01 A3044 RMK AO2
Loading
Personal Weather Stations






























Interactive Weather Map New forecast layout! Learn more

10-Day Weather Forecast

Advertisements
Track Severe Weather on mobile